Airfield :
LOGIN :

Register | Disclaimer

   EN    FR    IT 

 










Legend :    VFR   Marginal VFR   IFR   Intensive IFR   Very Intensive IFR
Visi :
Ceiling :
>= 8 km
>= 3000ft
5 to 8 km
1000 to 3000 ft
1500m to 5 km
500 to 1000 ft
800 to 1500m
200 to 500 ft
< 800m
< 200 ft
Symbols :   Thunderstorms  Fog  Heavy snow  Heavy precipitations  Wind > 20 kt
SIGMETs :     Misc.  Thunderstorms  Icing  Turbulence  Mountain Waves  Volcanic Ashes






- Airport Elevation : 158 ft
- IATA code : QAR


EHDL - Deelen Airbase

CURRENT METAR :
  • 022125Z AUTO 28004KT 310V020 9999 OVC078 20/11 Q1011 BLU

EXPIRED METARs :
  • 022055Z AUTO 30005KT 300V020 9999 BKN079 OVC190 20/10 Q1011 BLU
  • 022025Z AUTO 31005KT 260V350 9999 OVC190 21/10 Q1012 BLU
  • 021955Z AUTO 30005KT 260V350 9999 OVC190 22/10 Q1012 BLU
  • 021925Z AUTO 30006KT 250V010 9999 OVC190 23/11 Q1012 BLU
  • 021855Z AUTO 31009KT 250V010 9999 OVC190 24/11 Q1012 BLU

Expired Forecast.



MET'MAP, your aeronautical weather chart ! - Copyright ORBIFLY December 2007 - Disclaimer

ORBIFLY MET'MAP TEAM :

Programming & Development : Alexandra Zaïnal
Concept & original design : Baudouin d'Aumeries
Assistance for programming : Marc-Olivier Méhu
Technical & hardware support : Manuel Goepfert

Contact : metmap@orbifly.com




SOURCES & CREDITS :

   NOAA